sensor_id;sensor_type;location;lat;lon;timestamp;P1;durP1;ratioP1;P2;durP2;ratioP2
6537;SDS011;3302;52.508;13.454;2023-09-30T00:00:52;3.50;;;1.77;;
6537;SDS011;3302;52.508;13.454;2023-09-30T00:03:18;3.83;;;1.63;;
6537;SDS011;3302;52.508;13.454;2023-09-30T00:05:45;2.50;;;1.50;;
6537;SDS011;3302;52.508;13.454;2023-09-30T00:08:11;5.27;;;1.90;;
6537;SDS011;3302;52.508;13.454;2023-09-30T00:10:37;4.87;;;1.50;;
6537;SDS011;3302;52.508;13.454;2023-09-30T00:13:03;2.53;;;1.57;;
6537;SDS011;3302;52.508;13.454;2023-09-30T00:15:32;6.20;;;2.10;;
6537;SDS011;3302;52.508;13.454;2023-09-30T00:17:58;4.37;;;1.80;;
6537;SDS011;3302;52.508;13.454;2023-09-30T00:20:26;3.93;;;1.97;;
6537;SDS011;3302;52.508;13.454;2023-09-30T00:22:53;3.30;;;1.80;;
6537;SDS011;3302;52.508;13.454;2023-09-30T00:25:19;6.33;;;2.00;;
6537;SDS011;3302;52.508;13.454;2023-09-30T00:27:46;3.83;;;1.80;;
6537;SDS011;3302;52.508;13.454;2023-09-30T00:30:13;3.50;;;1.90;;
6537;SDS011;3302;52.508;13.454;2023-09-30T00:32:39;5.20;;;2.00;;
6537;SDS011;3302;52.508;13.454;2023-09-30T00:35:06;4.80;;;2.20;;
6537;SDS011;3302;52.508;13.454;2023-09-30T00:37:37;7.03;;;2.47;;
6537;SDS011;3302;52.508;13.454;2023-09-30T00:40:04;5.40;;;2.13;;
6537;SDS011;3302;52.508;13.454;2023-09-30T00:42:31;5.20;;;2.00;;
6537;SDS011;3302;52.508;13.454;2023-09-30T00:44:56;6.57;;;1.90;;
6537;SDS011;3302;52.508;13.454;2023-09-30T00:47:22;8.10;;;2.27;;
6537;SDS011;3302;52.508;13.454;2023-09-30T00:49:51;6.63;;;2.47;;
6537;SDS011;3302;52.508;13.454;2023-09-30T00:52:19;5.50;;;2.10;;
6537;SDS011;3302;52.508;13.454;2023-09-30T00:54:45;5.57;;;2.07;;
6537;SDS011;3302;52.508;13.454;2023-09-30T00:57:12;5.93;;;2.73;;
6537;SDS011;3302;52.508;13.454;2023-09-30T00:59:39;7.03;;;2.30;;
6537;SDS011;3302;52.508;13.454;2023-09-30T01:02:06;5.93;;;2.60;;
6537;SDS011;3302;52.508;13.454;2023-09-30T01:04:32;10.53;;;2.30;;
6537;SDS011;3302;52.508;13.454;2023-09-30T01:06:58;4.17;;;2.13;;
6537;SDS011;3302;52.508;13.454;2023-09-30T01:09:24;6.17;;;2.50;;
6537;SDS011;3302;52.508;13.454;2023-09-30T01:11:50;8.23;;;2.20;;
6537;SDS011;3302;52.508;13.454;2023-09-30T01:14:29;6.33;;;2.40;;
6537;SDS011;3302;52.508;13.454;2023-09-30T01:17:00;6.17;;;2.83;;
6537;SDS011;3302;52.508;13.454;2023-09-30T01:19:26;5.77;;;2.60;;
6537;SDS011;3302;52.508;13.454;2023-09-30T01:21:54;6.73;;;2.40;;
6537;SDS011;3302;52.508;13.454;2023-09-30T01:24:24;6.47;;;2.13;;
6537;SDS011;3302;52.508;13.454;2023-09-30T01:26:51;7.40;;;2.17;;
6537;SDS011;3302;52.508;13.454;2023-09-30T01:29:17;6.40;;;2.33;;
6537;SDS011;3302;52.508;13.454;2023-09-30T01:31:43;5.30;;;2.70;;
6537;SDS011;3302;52.508;13.454;2023-09-30T01:34:08;6.80;;;2.87;;
6537;SDS011;3302;52.508;13.454;2023-09-30T01:36:36;6.10;;;2.13;;
6537;SDS011;3302;52.508;13.454;2023-09-30T01:39:01;6.70;;;2.47;;
6537;SDS011;3302;52.508;13.454;2023-09-30T01:41:29;7.33;;;2.83;;
6537;SDS011;3302;52.508;13.454;2023-09-30T01:43:55;4.57;;;2.30;;
6537;SDS011;3302;52.508;13.454;2023-09-30T01:46:22;5.70;;;2.57;;
6537;SDS011;3302;52.508;13.454;2023-09-30T01:48:48;8.17;;;2.60;;
6537;SDS011;3302;52.508;13.454;2023-09-30T01:51:13;7.80;;;2.67;;
6537;SDS011;3302;52.508;13.454;2023-09-30T01:53:39;7.40;;;2.67;;
6537;SDS011;3302;52.508;13.454;2023-09-30T01:56:06;8.90;;;3.00;;
6537;SDS011;3302;52.508;13.454;2023-09-30T01:58:31;5.97;;;2.83;;
6537;SDS011;3302;52.508;13.454;2023-09-30T02:01:03;6.97;;;2.80;;
6537;SDS011;3302;52.508;13.454;2023-09-30T02:03:29;9.80;;;2.77;;
6537;SDS011;3302;52.508;13.454;2023-09-30T02:05:55;8.63;;;2.90;;
6537;SDS011;3302;52.508;13.454;2023-09-30T02:08:24;7.17;;;3.17;;
6537;SDS011;3302;52.508;13.454;2023-09-30T02:10:50;8.00;;;3.70;;
6537;SDS011;3302;52.508;13.454;2023-09-30T02:13:16;8.70;;;3.00;;
6537;SDS011;3302;52.508;13.454;2023-09-30T02:15:43;8.00;;;2.97;;
6537;SDS011;3302;52.508;13.454;2023-09-30T02:18:09;7.67;;;2.93;;
6537;SDS011;3302;52.508;13.454;2023-09-30T02:20:35;10.50;;;2.83;;
6537;SDS011;3302;52.508;13.454;2023-09-30T02:23:10;11.27;;;3.03;;
6537;SDS011;3302;52.508;13.454;2023-09-30T02:25:39;8.17;;;3.00;;
6537;SDS011;3302;52.508;13.454;2023-09-30T02:28:05;7.37;;;3.07;;
6537;SDS011;3302;52.508;13.454;2023-09-30T02:30:31;7.40;;;2.97;;
6537;SDS011;3302;52.508;13.454;2023-09-30T02:32:57;7.23;;;3.20;;
6537;SDS011;3302;52.508;13.454;2023-09-30T02:35:23;13.30;;;2.77;;
6537;SDS011;3302;52.508;13.454;2023-09-30T02:37:51;7.73;;;3.10;;
6537;SDS011;3302;52.508;13.454;2023-09-30T02:40:17;9.43;;;3.33;;
6537;SDS011;3302;52.508;13.454;2023-09-30T02:42:43;9.13;;;3.33;;
6537;SDS011;3302;52.508;13.454;2023-09-30T02:45:10;6.20;;;2.90;;
6537;SDS011;3302;52.508;13.454;2023-09-30T02:47:36;11.63;;;3.50;;
6537;SDS011;3302;52.508;13.454;2023-09-30T02:50:04;5.97;;;2.40;;
6537;SDS011;3302;52.508;13.454;2023-09-30T02:52:31;9.10;;;3.23;;
6537;SDS011;3302;52.508;13.454;2023-09-30T02:54:57;9.13;;;3.10;;
6537;SDS011;3302;52.508;13.454;2023-09-30T02:57:24;10.43;;;3.13;;
6537;SDS011;3302;52.508;13.454;2023-09-30T02:59:50;7.27;;;3.00;;
6537;SDS011;3302;52.508;13.454;2023-09-30T03:02:24;9.77;;;3.37;;
6537;SDS011;3302;52.508;13.454;2023-09-30T03:04:50;7.67;;;3.37;;
6537;SDS011;3302;52.508;13.454;2023-09-30T03:07:17;7.43;;;3.10;;
6537;SDS011;3302;52.508;13.454;2023-09-30T03:09:44;11.60;;;3.33;;
6537;SDS011;3302;52.508;13.454;2023-09-30T03:12:12;9.30;;;3.33;;
6537;SDS011;3302;52.508;13.454;2023-09-30T03:14:39;10.63;;;3.27;;
6537;SDS011;3302;52.508;13.454;2023-09-30T03:17:05;12.03;;;3.70;;
6537;SDS011;3302;52.508;13.454;2023-09-30T03:19:36;11.20;;;3.20;;
6537;SDS011;3302;52.508;13.454;2023-09-30T03:22:03;9.37;;;3.47;;
6537;SDS011;3302;52.508;13.454;2023-09-30T03:24:29;7.77;;;3.43;;
6537;SDS011;3302;52.508;13.454;2023-09-30T03:26:55;10.43;;;3.83;;
6537;SDS011;3302;52.508;13.454;2023-09-30T03:29:23;5.50;;;2.60;;
6537;SDS011;3302;52.508;13.454;2023-09-30T03:31:48;8.57;;;3.10;;
6537;SDS011;3302;52.508;13.454;2023-09-30T03:34:14;10.83;;;3.53;;
6537;SDS011;3302;52.508;13.454;2023-09-30T03:36:41;9.47;;;2.97;;
6537;SDS011;3302;52.508;13.454;2023-09-30T03:39:08;9.60;;;3.13;;
6537;SDS011;3302;52.508;13.454;2023-09-30T03:41:34;8.37;;;3.13;;
6537;SDS011;3302;52.508;13.454;2023-09-30T03:44:03;8.90;;;3.67;;
6537;SDS011;3302;52.508;13.454;2023-09-30T03:46:29;7.33;;;3.53;;
6537;SDS011;3302;52.508;13.454;2023-09-30T03:48:55;8.13;;;2.70;;
6537;SDS011;3302;52.508;13.454;2023-09-30T03:51:21;10.20;;;3.60;;
6537;SDS011;3302;52.508;13.454;2023-09-30T03:53:50;9.27;;;3.20;;
6537;SDS011;3302;52.508;13.454;2023-09-30T03:56:17;15.97;;;4.43;;
6537;SDS011;3302;52.508;13.454;2023-09-30T03:58:43;8.07;;;3.07;;
6537;SDS011;3302;52.508;13.454;2023-09-30T04:01:10;9.50;;;3.20;;
6537;SDS011;3302;52.508;13.454;2023-09-30T04:03:39;8.43;;;3.17;;
6537;SDS011;3302;52.508;13.454;2023-09-30T04:06:06;10.00;;;3.97;;
6537;SDS011;3302;52.508;13.454;2023-09-30T04:08:35;14.43;;;4.23;;
6537;SDS011;3302;52.508;13.454;2023-09-30T04:11:01;10.53;;;3.67;;
6537;SDS011;3302;52.508;13.454;2023-09-30T04:13:30;9.10;;;2.73;;
6537;SDS011;3302;52.508;13.454;2023-09-30T04:15:56;7.43;;;2.90;;
6537;SDS011;3302;52.508;13.454;2023-09-30T04:18:23;9.37;;;3.87;;
6537;SDS011;3302;52.508;13.454;2023-09-30T04:20:54;8.60;;;3.83;;
6537;SDS011;3302;52.508;13.454;2023-09-30T04:23:20;8.50;;;3.23;;
6537;SDS011;3302;52.508;13.454;2023-09-30T04:25:47;7.97;;;3.43;;
6537;SDS011;3302;52.508;13.454;2023-09-30T04:28:13;10.33;;;3.20;;
6537;SDS011;3302;52.508;13.454;2023-09-30T04:30:39;9.50;;;3.53;;
6537;SDS011;3302;52.508;13.454;2023-09-30T04:33:06;13.13;;;4.20;;
6537;SDS011;3302;52.508;13.454;2023-09-30T04:35:33;10.97;;;4.03;;
6537;SDS011;3302;52.508;13.454;2023-09-30T04:38:01;8.97;;;3.70;;
6537;SDS011;3302;52.508;13.454;2023-09-30T04:40:26;10.50;;;3.33;;
6537;SDS011;3302;52.508;13.454;2023-09-30T04:42:52;11.47;;;3.53;;
6537;SDS011;3302;52.508;13.454;2023-09-30T04:45:24;9.27;;;3.67;;
6537;SDS011;3302;52.508;13.454;2023-09-30T04:47:51;7.87;;;3.57;;
6537;SDS011;3302;52.508;13.454;2023-09-30T04:50:23;7.70;;;3.80;;
6537;SDS011;3302;52.508;13.454;2023-09-30T04:52:52;9.63;;;3.57;;
6537;SDS011;3302;52.508;13.454;2023-09-30T04:55:19;8.33;;;3.53;;
6537;SDS011;3302;52.508;13.454;2023-09-30T04:57:45;8.83;;;3.20;;
6537;SDS011;3302;52.508;13.454;2023-09-30T05:00:13;11.93;;;4.03;;
6537;SDS011;3302;52.508;13.454;2023-09-30T05:02:44;8.90;;;3.30;;
6537;SDS011;3302;52.508;13.454;2023-09-30T05:05:10;9.10;;;3.83;;
6537;SDS011;3302;52.508;13.454;2023-09-30T05:07:36;10.07;;;3.27;;
6537;SDS011;3302;52.508;13.454;2023-09-30T05:10:03;8.77;;;3.40;;
6537;SDS011;3302;52.508;13.454;2023-09-30T05:12:35;8.97;;;3.23;;
6537;SDS011;3302;52.508;13.454;2023-09-30T05:15:02;9.23;;;3.20;;
6537;SDS011;3302;52.508;13.454;2023-09-30T05:17:31;9.97;;;3.60;;
6537;SDS011;3302;52.508;13.454;2023-09-30T05:19:57;8.97;;;3.60;;
6537;SDS011;3302;52.508;13.454;2023-09-30T05:22:23;12.20;;;3.60;;
6537;SDS011;3302;52.508;13.454;2023-09-30T05:24:52;6.83;;;2.87;;
6537;SDS011;3302;52.508;13.454;2023-09-30T05:27:19;8.60;;;3.13;;
6537;SDS011;3302;52.508;13.454;2023-09-30T05:29:45;10.97;;;3.63;;
6537;SDS011;3302;52.508;13.454;2023-09-30T05:32:11;8.27;;;3.27;;
6537;SDS011;3302;52.508;13.454;2023-09-30T05:34:37;9.07;;;3.43;;
6537;SDS011;3302;52.508;13.454;2023-09-30T05:37:04;10.00;;;3.83;;
6537;SDS011;3302;52.508;13.454;2023-09-30T05:39:30;8.07;;;3.13;;
6537;SDS011;3302;52.508;13.454;2023-09-30T05:41:57;9.17;;;3.67;;
6537;SDS011;3302;52.508;13.454;2023-09-30T05:44:23;9.37;;;3.40;;
6537;SDS011;3302;52.508;13.454;2023-09-30T05:46:51;9.83;;;3.60;;
6537;SDS011;3302;52.508;13.454;2023-09-30T05:49:17;13.07;;;4.07;;
6537;SDS011;3302;52.508;13.454;2023-09-30T05:51:44;8.77;;;3.23;;
6537;SDS011;3302;52.508;13.454;2023-09-30T05:54:11;13.17;;;4.83;;
6537;SDS011;3302;52.508;13.454;2023-09-30T05:56:38;10.20;;;3.73;;
6537;SDS011;3302;52.508;13.454;2023-09-30T05:59:05;9.07;;;3.27;;
6537;SDS011;3302;52.508;13.454;2023-09-30T06:01:32;10.83;;;3.63;;
6537;SDS011;3302;52.508;13.454;2023-09-30T06:03:58;10.67;;;3.43;;
6537;SDS011;3302;52.508;13.454;2023-09-30T06:06:25;13.20;;;3.70;;
6537;SDS011;3302;52.508;13.454;2023-09-30T06:08:53;12.47;;;3.90;;
6537;SDS011;3302;52.508;13.454;2023-09-30T06:11:20;6.53;;;3.10;;
6537;SDS011;3302;52.508;13.454;2023-09-30T06:13:50;9.50;;;3.10;;
6537;SDS011;3302;52.508;13.454;2023-09-30T06:16:19;8.63;;;3.17;;
6537;SDS011;3302;52.508;13.454;2023-09-30T06:18:45;9.87;;;3.37;;
6537;SDS011;3302;52.508;13.454;2023-09-30T06:21:12;10.00;;;3.30;;
6537;SDS011;3302;52.508;13.454;2023-09-30T06:23:39;9.13;;;2.87;;
6537;SDS011;3302;52.508;13.454;2023-09-30T06:26:05;7.70;;;3.43;;
6537;SDS011;3302;52.508;13.454;2023-09-30T06:28:31;6.03;;;2.60;;
6537;SDS011;3302;52.508;13.454;2023-09-30T06:30:59;8.80;;;3.73;;
6537;SDS011;3302;52.508;13.454;2023-09-30T06:33:25;13.00;;;3.60;;
6537;SDS011;3302;52.508;13.454;2023-09-30T06:35:54;7.80;;;3.00;;
6537;SDS011;3302;52.508;13.454;2023-09-30T06:38:20;10.20;;;4.20;;
6537;SDS011;3302;52.508;13.454;2023-09-30T06:40:46;12.60;;;3.70;;
6537;SDS011;3302;52.508;13.454;2023-09-30T06:43:16;11.17;;;3.40;;
6537;SDS011;3302;52.508;13.454;2023-09-30T06:45:42;8.93;;;3.27;;
6537;SDS011;3302;52.508;13.454;2023-09-30T06:48:08;10.87;;;3.53;;
6537;SDS011;3302;52.508;13.454;2023-09-30T06:50:44;8.60;;;3.00;;
6537;SDS011;3302;52.508;13.454;2023-09-30T06:53:17;7.97;;;3.00;;
6537;SDS011;3302;52.508;13.454;2023-09-30T06:55:44;7.50;;;3.37;;
6537;SDS011;3302;52.508;13.454;2023-09-30T06:58:10;8.20;;;3.40;;
6537;SDS011;3302;52.508;13.454;2023-09-30T07:00:45;9.07;;;3.30;;
6537;SDS011;3302;52.508;13.454;2023-09-30T07:03:14;9.27;;;3.30;;
6537;SDS011;3302;52.508;13.454;2023-09-30T07:05:41;11.50;;;3.60;;
6537;SDS011;3302;52.508;13.454;2023-09-30T07:08:07;9.43;;;3.07;;
6537;SDS011;3302;52.508;13.454;2023-09-30T07:10:34;9.17;;;3.10;;
6537;SDS011;3302;52.508;13.454;2023-09-30T07:13:03;6.83;;;3.07;;
6537;SDS011;3302;52.508;13.454;2023-09-30T07:15:29;9.17;;;3.37;;
6537;SDS011;3302;52.508;13.454;2023-09-30T07:17:55;13.27;;;3.80;;
6537;SDS011;3302;52.508;13.454;2023-09-30T07:20:21;9.27;;;3.13;;
6537;SDS011;3302;52.508;13.454;2023-09-30T07:22:48;11.30;;;3.67;;
6537;SDS011;3302;52.508;13.454;2023-09-30T07:25:14;7.50;;;3.50;;
6537;SDS011;3302;52.508;13.454;2023-09-30T07:27:45;9.03;;;3.30;;
6537;SDS011;3302;52.508;13.454;2023-09-30T07:30:14;9.47;;;2.90;;
6537;SDS011;3302;52.508;13.454;2023-09-30T07:32:43;9.80;;;3.17;;
6537;SDS011;3302;52.508;13.454;2023-09-30T07:35:10;8.87;;;3.10;;
6537;SDS011;3302;52.508;13.454;2023-09-30T07:37:39;8.40;;;3.70;;
6537;SDS011;3302;52.508;13.454;2023-09-30T07:40:07;11.57;;;4.43;;
6537;SDS011;3302;52.508;13.454;2023-09-30T07:42:33;8.10;;;3.00;;
6537;SDS011;3302;52.508;13.454;2023-09-30T07:45:00;9.43;;;3.30;;
6537;SDS011;3302;52.508;13.454;2023-09-30T07:47:28;8.17;;;3.10;;
6537;SDS011;3302;52.508;13.454;2023-09-30T07:49:56;12.63;;;3.33;;
6537;SDS011;3302;52.508;13.454;2023-09-30T07:52:22;8.07;;;3.10;;
6537;SDS011;3302;52.508;13.454;2023-09-30T07:54:48;10.43;;;3.70;;
6537;SDS011;3302;52.508;13.454;2023-09-30T07:57:14;10.50;;;3.87;;
6537;SDS011;3302;52.508;13.454;2023-09-30T07:59:41;9.33;;;3.13;;
6537;SDS011;3302;52.508;13.454;2023-09-30T08:02:08;8.83;;;2.90;;
6537;SDS011;3302;52.508;13.454;2023-09-30T08:04:34;8.90;;;3.23;;
6537;SDS011;3302;52.508;13.454;2023-09-30T08:07:00;10.63;;;3.40;;
6537;SDS011;3302;52.508;13.454;2023-09-30T08:09:26;11.57;;;3.13;;
6537;SDS011;3302;52.508;13.454;2023-09-30T08:11:55;8.50;;;3.20;;
6537;SDS011;3302;52.508;13.454;2023-09-30T08:14:22;10.43;;;3.43;;
6537;SDS011;3302;52.508;13.454;2023-09-30T08:16:48;9.80;;;3.30;;
6537;SDS011;3302;52.508;13.454;2023-09-30T08:19:14;7.30;;;3.10;;
6537;SDS011;3302;52.508;13.454;2023-09-30T08:21:40;8.73;;;3.00;;
6537;SDS011;3302;52.508;13.454;2023-09-30T08:24:07;9.67;;;3.77;;
6537;SDS011;3302;52.508;13.454;2023-09-30T08:26:33;9.30;;;3.07;;
6537;SDS011;3302;52.508;13.454;2023-09-30T08:29:01;11.40;;;3.20;;
6537;SDS011;3302;52.508;13.454;2023-09-30T08:31:28;8.60;;;3.00;;
6537;SDS011;3302;52.508;13.454;2023-09-30T08:33:54;8.43;;;3.47;;
6537;SDS011;3302;52.508;13.454;2023-09-30T08:36:20;15.03;;;3.50;;
6537;SDS011;3302;52.508;13.454;2023-09-30T08:38:46;8.47;;;3.20;;
6537;SDS011;3302;52.508;13.454;2023-09-30T08:41:17;11.83;;;2.90;;
6537;SDS011;3302;52.508;13.454;2023-09-30T08:43:59;9.07;;;3.23;;
6537;SDS011;3302;52.508;13.454;2023-09-30T08:46:30;12.90;;;3.27;;
6537;SDS011;3302;52.508;13.454;2023-09-30T08:48:58;11.40;;;3.40;;
6537;SDS011;3302;52.508;13.454;2023-09-30T08:51:29;10.03;;;3.40;;
6537;SDS011;3302;52.508;13.454;2023-09-30T08:53:56;7.33;;;2.77;;
6537;SDS011;3302;52.508;13.454;2023-09-30T08:56:24;11.43;;;3.37;;
6537;SDS011;3302;52.508;13.454;2023-09-30T08:58:57;12.17;;;2.80;;
6537;SDS011;3302;52.508;13.454;2023-09-30T09:01:27;8.13;;;2.87;;
6537;SDS011;3302;52.508;13.454;2023-09-30T09:03:54;11.97;;;3.10;;
6537;SDS011;3302;52.508;13.454;2023-09-30T09:06:21;11.40;;;3.13;;
6537;SDS011;3302;52.508;13.454;2023-09-30T09:08:49;8.03;;;3.40;;
6537;SDS011;3302;52.508;13.454;2023-09-30T09:11:16;7.07;;;2.77;;
6537;SDS011;3302;52.508;13.454;2023-09-30T09:13:50;11.90;;;3.43;;
6537;SDS011;3302;52.508;13.454;2023-09-30T09:16:21;8.70;;;2.43;;
6537;SDS011;3302;52.508;13.454;2023-09-30T09:18:49;8.07;;;2.77;;
6537;SDS011;3302;52.508;13.454;2023-09-30T09:21:20;10.27;;;3.40;;
6537;SDS011;3302;52.508;13.454;2023-09-30T09:23:53;9.33;;;3.13;;
6537;SDS011;3302;52.508;13.454;2023-09-30T09:26:24;8.10;;;2.90;;
6537;SDS011;3302;52.508;13.454;2023-09-30T09:29:02;7.00;;;2.90;;
6537;SDS011;3302;52.508;13.454;2023-09-30T09:31:34;7.17;;;2.63;;
6537;SDS011;3302;52.508;13.454;2023-09-30T09:34:13;8.90;;;2.53;;
6537;SDS011;3302;52.508;13.454;2023-09-30T09:36:40;7.13;;;2.70;;
6537;SDS011;3302;52.508;13.454;2023-09-30T09:39:11;10.10;;;3.07;;
6537;SDS011;3302;52.508;13.454;2023-09-30T09:41:51;10.23;;;3.07;;
6537;SDS011;3302;52.508;13.454;2023-09-30T09:44:22;8.07;;;2.97;;
6537;SDS011;3302;52.508;13.454;2023-09-30T09:46:48;6.10;;;2.63;;
6537;SDS011;3302;52.508;13.454;2023-09-30T09:49:17;7.27;;;3.93;;
6537;SDS011;3302;52.508;13.454;2023-09-30T09:51:45;6.37;;;2.80;;
6537;SDS011;3302;52.508;13.454;2023-09-30T09:54:12;10.50;;;3.13;;
6537;SDS011;3302;52.508;13.454;2023-09-30T09:56:39;7.87;;;2.77;;
6537;SDS011;3302;52.508;13.454;2023-09-30T09:59:09;7.27;;;2.47;;
6537;SDS011;3302;52.508;13.454;2023-09-30T10:01:37;9.80;;;2.70;;
6537;SDS011;3302;52.508;13.454;2023-09-30T10:04:05;9.10;;;3.17;;
6537;SDS011;3302;52.508;13.454;2023-09-30T10:06:32;7.37;;;3.33;;
6537;SDS011;3302;52.508;13.454;2023-09-30T10:09:05;7.93;;;2.87;;
6537;SDS011;3302;52.508;13.454;2023-09-30T10:11:34;5.93;;;2.87;;
6537;SDS011;3302;52.508;13.454;2023-09-30T10:14:01;10.50;;;3.07;;
6537;SDS011;3302;52.508;13.454;2023-09-30T10:22:19;7.07;;;2.53;;
6537;SDS011;3302;52.508;13.454;2023-09-30T10:24:59;11.13;;;3.43;;
6537;SDS011;3302;52.508;13.454;2023-09-30T10:35:19;6.20;;;2.77;;
6537;SDS011;3302;52.508;13.454;2023-09-30T10:37:47;8.70;;;2.73;;
6537;SDS011;3302;52.508;13.454;2023-09-30T10:40:26;6.77;;;2.93;;
6537;SDS011;3302;52.508;13.454;2023-09-30T10:42:56;7.77;;;2.77;;
6537;SDS011;3302;52.508;13.454;2023-09-30T10:50:57;7.03;;;2.60;;
6537;SDS011;3302;52.508;13.454;2023-09-30T10:53:26;6.43;;;2.53;;
6537;SDS011;3302;52.508;13.454;2023-09-30T10:55:53;7.93;;;2.43;;
6537;SDS011;3302;52.508;13.454;2023-09-30T10:58:21;7.47;;;3.13;;
6537;SDS011;3302;52.508;13.454;2023-09-30T11:00:53;13.83;;;2.80;;
6537;SDS011;3302;52.508;13.454;2023-09-30T11:03:21;6.90;;;2.57;;
6537;SDS011;3302;52.508;13.454;2023-09-30T11:05:47;4.53;;;2.07;;
6537;SDS011;3302;52.508;13.454;2023-09-30T11:08:17;7.33;;;2.40;;
6537;SDS011;3302;52.508;13.454;2023-09-30T11:10:50;7.17;;;2.40;;
6537;SDS011;3302;52.508;13.454;2023-09-30T11:13:18;7.53;;;1.97;;
6537;SDS011;3302;52.508;13.454;2023-09-30T11:15:44;7.27;;;2.77;;
6537;SDS011;3302;52.508;13.454;2023-09-30T11:18:15;6.47;;;2.50;;
6537;SDS011;3302;52.508;13.454;2023-09-30T11:20:42;5.10;;;2.03;;
6537;SDS011;3302;52.508;13.454;2023-09-30T11:23:10;6.90;;;2.30;;
6537;SDS011;3302;52.508;13.454;2023-09-30T11:25:37;5.07;;;2.10;;
6537;SDS011;3302;52.508;13.454;2023-09-30T11:28:15;5.77;;;1.90;;
6537;SDS011;3302;52.508;13.454;2023-09-30T11:33:21;5.90;;;2.20;;
6537;SDS011;3302;52.508;13.454;2023-09-30T11:36:04;9.53;;;2.43;;
6537;SDS011;3302;52.508;13.454;2023-09-30T11:38:31;5.97;;;2.23;;
6537;SDS011;3302;52.508;13.454;2023-09-30T11:43:28;7.93;;;2.27;;
6537;SDS011;3302;52.508;13.454;2023-09-30T11:46:11;5.13;;;2.73;;
6537;SDS011;3302;52.508;13.454;2023-09-30T11:51:26;5.10;;;2.50;;
6537;SDS011;3302;52.508;13.454;2023-09-30T11:53:53;7.83;;;2.40;;
6537;SDS011;3302;52.508;13.454;2023-09-30T11:56:21;6.83;;;2.60;;
6537;SDS011;3302;52.508;13.454;2023-09-30T11:58:53;6.63;;;2.50;;
6537;SDS011;3302;52.508;13.454;2023-09-30T12:01:21;5.27;;;2.00;;
6537;SDS011;3302;52.508;13.454;2023-09-30T12:03:50;8.27;;;2.30;;
6537;SDS011;3302;52.508;13.454;2023-09-30T12:06:17;8.07;;;2.27;;
6537;SDS011;3302;52.508;13.454;2023-09-30T12:08:43;6.83;;;2.77;;
6537;SDS011;3302;52.508;13.454;2023-09-30T12:11:10;7.07;;;2.63;;
6537;SDS011;3302;52.508;13.454;2023-09-30T12:13:41;5.53;;;2.50;;
6537;SDS011;3302;52.508;13.454;2023-09-30T12:16:10;7.90;;;2.80;;
6537;SDS011;3302;52.508;13.454;2023-09-30T12:18:39;7.13;;;2.03;;
6537;SDS011;3302;52.508;13.454;2023-09-30T12:21:07;5.83;;;2.20;;
6537;SDS011;3302;52.508;13.454;2023-09-30T12:23:35;5.53;;;2.13;;
6537;SDS011;3302;52.508;13.454;2023-09-30T12:26:03;7.50;;;5.27;;
6537;SDS011;3302;52.508;13.454;2023-09-30T12:28:33;7.30;;;3.40;;
6537;SDS011;3302;52.508;13.454;2023-09-30T12:31:00;6.67;;;3.40;;
6537;SDS011;3302;52.508;13.454;2023-09-30T12:33:31;6.90;;;2.20;;
6537;SDS011;3302;52.508;13.454;2023-09-30T12:35:57;4.70;;;2.77;;
6537;SDS011;3302;52.508;13.454;2023-09-30T12:38:24;4.97;;;1.80;;
6537;SDS011;3302;52.508;13.454;2023-09-30T12:40:54;5.40;;;1.83;;
6537;SDS011;3302;52.508;13.454;2023-09-30T12:43:20;3.53;;;1.97;;
6537;SDS011;3302;52.508;13.454;2023-09-30T12:45:47;5.80;;;2.03;;
6537;SDS011;3302;52.508;13.454;2023-09-30T12:48:13;7.77;;;2.50;;
6537;SDS011;3302;52.508;13.454;2023-09-30T12:50:39;5.47;;;2.40;;
6537;SDS011;3302;52.508;13.454;2023-09-30T12:53:06;7.80;;;2.30;;
6537;SDS011;3302;52.508;13.454;2023-09-30T12:55:32;5.27;;;1.83;;
6537;SDS011;3302;52.508;13.454;2023-09-30T12:57:58;4.63;;;2.10;;
6537;SDS011;3302;52.508;13.454;2023-09-30T13:00:25;6.40;;;2.07;;
6537;SDS011;3302;52.508;13.454;2023-09-30T13:02:52;8.07;;;3.07;;
6537;SDS011;3302;52.508;13.454;2023-09-30T13:05:18;5.97;;;2.47;;
6537;SDS011;3302;52.508;13.454;2023-09-30T13:07:45;4.50;;;1.90;;
6537;SDS011;3302;52.508;13.454;2023-09-30T13:10:11;8.07;;;2.90;;
6537;SDS011;3302;52.508;13.454;2023-09-30T13:12:38;6.83;;;2.00;;
6537;SDS011;3302;52.508;13.454;2023-09-30T13:15:04;3.77;;;1.60;;
6537;SDS011;3302;52.508;13.454;2023-09-30T13:17:31;6.77;;;2.63;;
6537;SDS011;3302;52.508;13.454;2023-09-30T13:19:57;3.77;;;1.97;;
6537;SDS011;3302;52.508;13.454;2023-09-30T13:22:23;5.03;;;2.40;;
6537;SDS011;3302;52.508;13.454;2023-09-30T13:24:49;4.53;;;2.00;;
6537;SDS011;3302;52.508;13.454;2023-09-30T13:27:16;5.53;;;1.90;;
6537;SDS011;3302;52.508;13.454;2023-09-30T13:29:42;7.10;;;2.73;;
6537;SDS011;3302;52.508;13.454;2023-09-30T13:32:09;5.17;;;2.00;;
6537;SDS011;3302;52.508;13.454;2023-09-30T13:34:35;6.40;;;1.90;;
6537;SDS011;3302;52.508;13.454;2023-09-30T13:37:01;3.07;;;2.00;;
6537;SDS011;3302;52.508;13.454;2023-09-30T13:39:27;4.03;;;1.73;;
6537;SDS011;3302;52.508;13.454;2023-09-30T13:41:54;5.70;;;1.90;;
6537;SDS011;3302;52.508;13.454;2023-09-30T13:44:20;3.90;;;1.80;;
6537;SDS011;3302;52.508;13.454;2023-09-30T13:46:46;6.80;;;2.20;;
6537;SDS011;3302;52.508;13.454;2023-09-30T13:49:13;4.10;;;1.90;;
6537;SDS011;3302;52.508;13.454;2023-09-30T13:51:39;5.57;;;2.00;;
6537;SDS011;3302;52.508;13.454;2023-09-30T13:54:05;4.30;;;2.07;;
6537;SDS011;3302;52.508;13.454;2023-09-30T13:56:34;7.17;;;2.30;;
6537;SDS011;3302;52.508;13.454;2023-09-30T13:58:59;6.13;;;2.10;;
6537;SDS011;3302;52.508;13.454;2023-09-30T14:01:25;6.60;;;1.90;;
6537;SDS011;3302;52.508;13.454;2023-09-30T14:03:52;6.90;;;2.50;;
6537;SDS011;3302;52.508;13.454;2023-09-30T14:06:22;6.47;;;2.20;;
6537;SDS011;3302;52.508;13.454;2023-09-30T14:08:48;4.10;;;1.90;;
6537;SDS011;3302;52.508;13.454;2023-09-30T14:11:14;6.67;;;1.90;;
6537;SDS011;3302;52.508;13.454;2023-09-30T14:13:40;5.97;;;2.20;;
6537;SDS011;3302;52.508;13.454;2023-09-30T14:16:06;4.17;;;2.20;;
6537;SDS011;3302;52.508;13.454;2023-09-30T14:18:32;3.40;;;1.80;;
6537;SDS011;3302;52.508;13.454;2023-09-30T14:20:59;5.00;;;2.20;;
6537;SDS011;3302;52.508;13.454;2023-09-30T14:23:26;2.60;;;1.67;;
6537;SDS011;3302;52.508;13.454;2023-09-30T14:25:54;5.87;;;2.50;;
6537;SDS011;3302;52.508;13.454;2023-09-30T14:28:23;7.37;;;2.00;;
6537;SDS011;3302;52.508;13.454;2023-09-30T14:30:48;4.50;;;1.83;;
6537;SDS011;3302;52.508;13.454;2023-09-30T14:33:18;6.77;;;2.37;;
6537;SDS011;3302;52.508;13.454;2023-09-30T14:35:45;4.17;;;2.10;;
6537;SDS011;3302;52.508;13.454;2023-09-30T14:38:11;5.77;;;1.90;;
6537;SDS011;3302;52.508;13.454;2023-09-30T14:40:37;4.93;;;2.13;;
6537;SDS011;3302;52.508;13.454;2023-09-30T14:43:05;6.43;;;2.30;;
6537;SDS011;3302;52.508;13.454;2023-09-30T14:45:32;5.87;;;2.20;;
6537;SDS011;3302;52.508;13.454;2023-09-30T14:48:02;5.30;;;2.47;;
6537;SDS011;3302;52.508;13.454;2023-09-30T14:50:28;6.03;;;2.00;;
6537;SDS011;3302;52.508;13.454;2023-09-30T14:52:53;4.13;;;2.33;;
6537;SDS011;3302;52.508;13.454;2023-09-30T14:55:19;6.93;;;1.90;;
6537;SDS011;3302;52.508;13.454;2023-09-30T14:57:45;6.73;;;2.03;;
6537;SDS011;3302;52.508;13.454;2023-09-30T15:00:12;5.50;;;2.00;;
6537;SDS011;3302;52.508;13.454;2023-09-30T15:02:38;6.80;;;2.60;;
6537;SDS011;3302;52.508;13.454;2023-09-30T15:05:05;3.73;;;1.80;;
6537;SDS011;3302;52.508;13.454;2023-09-30T15:07:32;5.27;;;2.00;;
6537;SDS011;3302;52.508;13.454;2023-09-30T15:09:57;6.17;;;2.20;;
6537;SDS011;3302;52.508;13.454;2023-09-30T15:12:24;4.70;;;2.10;;
6537;SDS011;3302;52.508;13.454;2023-09-30T15:14:50;2.93;;;1.40;;
6537;SDS011;3302;52.508;13.454;2023-09-30T15:17:17;3.77;;;2.30;;
6537;SDS011;3302;52.508;13.454;2023-09-30T15:19:43;6.87;;;2.20;;
6537;SDS011;3302;52.508;13.454;2023-09-30T15:22:09;4.40;;;2.23;;
6537;SDS011;3302;52.508;13.454;2023-09-30T15:24:34;6.80;;;2.20;;
6537;SDS011;3302;52.508;13.454;2023-09-30T15:27:00;6.43;;;2.00;;